sensor_id;sensor_type;location;lat;lon;timestamp;temperature;humidity
18384;DHT22;9318;48.644;9.456;2022-07-24T00:01:22;20.90;99.90
18384;DHT22;9318;48.644;9.456;2022-07-24T00:03:49;20.90;99.90
18384;DHT22;9318;48.644;9.456;2022-07-24T00:06:16;20.80;99.90
18384;DHT22;9318;48.644;9.456;2022-07-24T00:08:44;20.80;99.90
18384;DHT22;9318;48.644;9.456;2022-07-24T00:11:11;20.80;99.90
18384;DHT22;9318;48.644;9.456;2022-07-24T00:13:39;20.80;99.90
18384;DHT22;9318;48.644;9.456;2022-07-24T00:16:06;20.90;99.90
18384;DHT22;9318;48.644;9.456;2022-07-24T00:18:35;20.90;99.90
18384;DHT22;9318;48.644;9.456;2022-07-24T00:21:03;20.90;99.90
18384;DHT22;9318;48.644;9.456;2022-07-24T00:23:30;20.90;99.90
18384;DHT22;9318;48.644;9.456;2022-07-24T00:25:59;20.90;99.90
18384;DHT22;9318;48.644;9.456;2022-07-24T00:28:26;20.90;99.90
18384;DHT22;9318;48.644;9.456;2022-07-24T00:30:54;20.90;99.90
18384;DHT22;9318;48.644;9.456;2022-07-24T00:33:21;21.00;99.90
18384;DHT22;9318;48.644;9.456;2022-07-24T00:35:50;21.00;99.90
18384;DHT22;9318;48.644;9.456;2022-07-24T00:38:17;21.00;99.90
18384;DHT22;9318;48.644;9.456;2022-07-24T00:40:44;21.00;99.90
18384;DHT22;9318;48.644;9.456;2022-07-24T00:43:11;21.00;99.90
18384;DHT22;9318;48.644;9.456;2022-07-24T00:45:38;21.10;99.90
18384;DHT22;9318;48.644;9.456;2022-07-24T00:48:06;21.10;99.90
18384;DHT22;9318;48.644;9.456;2022-07-24T00:50:33;21.10;99.90
18384;DHT22;9318;48.644;9.456;2022-07-24T00:53:03;21.00;99.90
18384;DHT22;9318;48.644;9.456;2022-07-24T00:55:33;21.10;99.90
18384;DHT22;9318;48.644;9.456;2022-07-24T00:58:00;21.10;99.90
18384;DHT22;9318;48.644;9.456;2022-07-24T01:00:28;21.00;99.90
18384;DHT22;9318;48.644;9.456;2022-07-24T01:02:56;21.00;99.90
18384;DHT22;9318;48.644;9.456;2022-07-24T01:05:23;21.00;99.90
18384;DHT22;9318;48.644;9.456;2022-07-24T01:07:50;20.90;99.90
18384;DHT22;9318;48.644;9.456;2022-07-24T01:10:19;20.80;99.90
18384;DHT22;9318;48.644;9.456;2022-07-24T01:12:46;20.80;99.90
18384;DHT22;9318;48.644;9.456;2022-07-24T01:15:14;20.80;99.90
18384;DHT22;9318;48.644;9.456;2022-07-24T01:17:42;20.80;99.90
18384;DHT22;9318;48.644;9.456;2022-07-24T01:20:10;20.80;99.90
18384;DHT22;9318;48.644;9.456;2022-07-24T01:22:39;20.80;99.90
18384;DHT22;9318;48.644;9.456;2022-07-24T01:25:07;20.80;99.90
18384;DHT22;9318;48.644;9.456;2022-07-24T01:27:35;20.80;99.90
18384;DHT22;9318;48.644;9.456;2022-07-24T01:30:03;20.80;99.90
18384;DHT22;9318;48.644;9.456;2022-07-24T01:32:30;20.80;99.90
18384;DHT22;9318;48.644;9.456;2022-07-24T01:34:57;20.80;99.90
18384;DHT22;9318;48.644;9.456;2022-07-24T01:37:25;20.80;99.90
18384;DHT22;9318;48.644;9.456;2022-07-24T01:39:53;20.80;99.90
18384;DHT22;9318;48.644;9.456;2022-07-24T01:42:20;20.80;99.90
18384;DHT22;9318;48.644;9.456;2022-07-24T01:44:51;20.90;99.90
18384;DHT22;9318;48.644;9.456;2022-07-24T01:47:19;20.80;99.90
18384;DHT22;9318;48.644;9.456;2022-07-24T01:49:46;20.80;99.90
18384;DHT22;9318;48.644;9.456;2022-07-24T01:52:13;20.80;99.90
18384;DHT22;9318;48.644;9.456;2022-07-24T01:54:41;20.80;99.90
18384;DHT22;9318;48.644;9.456;2022-07-24T01:57:09;20.80;99.90
18384;DHT22;9318;48.644;9.456;2022-07-24T01:59:38;20.80;99.90
18384;DHT22;9318;48.644;9.456;2022-07-24T02:02:05;20.80;99.90
18384;DHT22;9318;48.644;9.456;2022-07-24T02:04:32;20.70;99.90
18384;DHT22;9318;48.644;9.456;2022-07-24T02:07:00;20.70;99.90
18384;DHT22;9318;48.644;9.456;2022-07-24T02:09:27;20.70;99.90
18384;DHT22;9318;48.644;9.456;2022-07-24T02:11:54;20.70;99.90
18384;DHT22;9318;48.644;9.456;2022-07-24T02:14:23;20.70;99.90
18384;DHT22;9318;48.644;9.456;2022-07-24T02:16:50;20.70;99.90
18384;DHT22;9318;48.644;9.456;2022-07-24T02:19:18;20.70;99.90
18384;DHT22;9318;48.644;9.456;2022-07-24T02:21:45;20.70;99.90
18384;DHT22;9318;48.644;9.456;2022-07-24T02:24:12;20.70;99.90
18384;DHT22;9318;48.644;9.456;2022-07-24T02:26:39;20.60;99.90
18384;DHT22;9318;48.644;9.456;2022-07-24T02:29:07;20.60;99.90
18384;DHT22;9318;48.644;9.456;2022-07-24T02:31:35;20.50;99.90
18384;DHT22;9318;48.644;9.456;2022-07-24T02:34:03;20.40;99.90
18384;DHT22;9318;48.644;9.456;2022-07-24T02:36:30;20.40;99.90
18384;DHT22;9318;48.644;9.456;2022-07-24T02:38:57;20.40;99.90
18384;DHT22;9318;48.644;9.456;2022-07-24T02:41:24;20.30;99.90
18384;DHT22;9318;48.644;9.456;2022-07-24T02:43:51;20.20;99.90
18384;DHT22;9318;48.644;9.456;2022-07-24T02:46:19;20.20;99.90
18384;DHT22;9318;48.644;9.456;2022-07-24T02:48:47;20.20;99.90
18384;DHT22;9318;48.644;9.456;2022-07-24T02:51:15;20.20;99.90
18384;DHT22;9318;48.644;9.456;2022-07-24T02:53:42;20.20;99.90
18384;DHT22;9318;48.644;9.456;2022-07-24T02:56:09;20.20;99.90
18384;DHT22;9318;48.644;9.456;2022-07-24T02:58:36;20.20;99.90
18384;DHT22;9318;48.644;9.456;2022-07-24T03:01:04;20.20;99.90
18384;DHT22;9318;48.644;9.456;2022-07-24T03:03:32;20.20;99.90
18384;DHT22;9318;48.644;9.456;2022-07-24T03:06:00;20.20;99.90
18384;DHT22;9318;48.644;9.456;2022-07-24T03:08:27;20.20;99.90
18384;DHT22;9318;48.644;9.456;2022-07-24T03:10:54;20.10;99.90
18384;DHT22;9318;48.644;9.456;2022-07-24T03:13:22;19.90;99.90
18384;DHT22;9318;48.644;9.456;2022-07-24T03:15:49;19.80;99.90
18384;DHT22;9318;48.644;9.456;2022-07-24T03:18:16;19.70;99.90
18384;DHT22;9318;48.644;9.456;2022-07-24T03:20:43;19.70;99.90
18384;DHT22;9318;48.644;9.456;2022-07-24T03:23:12;19.70;99.90
18384;DHT22;9318;48.644;9.456;2022-07-24T03:25:39;19.80;99.90
18384;DHT22;9318;48.644;9.456;2022-07-24T03:28:06;19.90;99.90
18384;DHT22;9318;48.644;9.456;2022-07-24T03:30:34;19.90;99.90
18384;DHT22;9318;48.644;9.456;2022-07-24T03:33:02;19.90;99.90
18384;DHT22;9318;48.644;9.456;2022-07-24T03:35:29;19.90;99.90
18384;DHT22;9318;48.644;9.456;2022-07-24T03:37:56;20.00;99.90
18384;DHT22;9318;48.644;9.456;2022-07-24T03:40:25;20.00;99.90
18384;DHT22;9318;48.644;9.456;2022-07-24T03:42:52;20.00;99.90
18384;DHT22;9318;48.644;9.456;2022-07-24T03:45:19;20.10;99.90
18384;DHT22;9318;48.644;9.456;2022-07-24T03:47:46;20.10;99.90
18384;DHT22;9318;48.644;9.456;2022-07-24T03:50:14;20.20;99.90
18384;DHT22;9318;48.644;9.456;2022-07-24T03:52:41;20.10;99.90
18384;DHT22;9318;48.644;9.456;2022-07-24T03:55:08;20.10;99.90
18384;DHT22;9318;48.644;9.456;2022-07-24T03:57:37;20.00;99.90
18384;DHT22;9318;48.644;9.456;2022-07-24T04:00:06;20.00;99.90
18384;DHT22;9318;48.644;9.456;2022-07-24T04:02:34;20.00;99.90
18384;DHT22;9318;48.644;9.456;2022-07-24T04:05:03;19.90;99.90
18384;DHT22;9318;48.644;9.456;2022-07-24T04:07:34;19.70;99.90
18384;DHT22;9318;48.644;9.456;2022-07-24T04:10:01;19.70;99.90
18384;DHT22;9318;48.644;9.456;2022-07-24T04:12:29;19.70;99.90
18384;DHT22;9318;48.644;9.456;2022-07-24T04:14:57;19.70;99.90
18384;DHT22;9318;48.644;9.456;2022-07-24T04:17:25;19.70;99.90
18384;DHT22;9318;48.644;9.456;2022-07-24T04:19:52;19.70;99.90
18384;DHT22;9318;48.644;9.456;2022-07-24T04:22:19;19.80;99.90
18384;DHT22;9318;48.644;9.456;2022-07-24T04:24:46;19.90;99.90
18384;DHT22;9318;48.644;9.456;2022-07-24T04:27:13;19.80;99.90
18384;DHT22;9318;48.644;9.456;2022-07-24T04:29:41;19.70;99.90
18384;DHT22;9318;48.644;9.456;2022-07-24T04:32:09;19.80;99.90
18384;DHT22;9318;48.644;9.456;2022-07-24T04:34:36;19.80;99.90
18384;DHT22;9318;48.644;9.456;2022-07-24T04:37:04;19.80;99.90
18384;DHT22;9318;48.644;9.456;2022-07-24T04:39:31;19.90;99.90
18384;DHT22;9318;48.644;9.456;2022-07-24T04:41:58;19.90;99.90
18384;DHT22;9318;48.644;9.456;2022-07-24T04:44:25;19.90;99.90
18384;DHT22;9318;48.644;9.456;2022-07-24T04:46:52;19.90;99.90
18384;DHT22;9318;48.644;9.456;2022-07-24T04:49:21;19.90;99.90
18384;DHT22;9318;48.644;9.456;2022-07-24T04:51:48;20.00;99.90
18384;DHT22;9318;48.644;9.456;2022-07-24T04:54:15;20.00;99.90
18384;DHT22;9318;48.644;9.456;2022-07-24T04:56:43;20.00;99.90
18384;DHT22;9318;48.644;9.456;2022-07-24T04:59:10;20.10;99.90
18384;DHT22;9318;48.644;9.456;2022-07-24T05:01:37;20.10;99.90
18384;DHT22;9318;48.644;9.456;2022-07-24T05:04:05;20.20;99.90
18384;DHT22;9318;48.644;9.456;2022-07-24T05:06:33;20.30;99.90
18384;DHT22;9318;48.644;9.456;2022-07-24T05:09:00;20.40;99.90
18384;DHT22;9318;48.644;9.456;2022-07-24T05:11:28;20.40;99.90
18384;DHT22;9318;48.644;9.456;2022-07-24T05:13:55;20.50;99.90
18384;DHT22;9318;48.644;9.456;2022-07-24T05:16:22;20.40;99.90
18384;DHT22;9318;48.644;9.456;2022-07-24T05:18:49;20.50;99.90
18384;DHT22;9318;48.644;9.456;2022-07-24T05:21:16;20.60;99.90
18384;DHT22;9318;48.644;9.456;2022-07-24T05:23:45;20.50;99.90
18384;DHT22;9318;48.644;9.456;2022-07-24T05:26:12;20.60;99.90
18384;DHT22;9318;48.644;9.456;2022-07-24T05:28:39;20.80;99.90
18384;DHT22;9318;48.644;9.456;2022-07-24T05:31:06;20.90;99.90
18384;DHT22;9318;48.644;9.456;2022-07-24T05:33:34;21.00;99.90
18384;DHT22;9318;48.644;9.456;2022-07-24T05:36:02;21.10;99.90
18384;DHT22;9318;48.644;9.456;2022-07-24T05:38:29;21.20;99.90
18384;DHT22;9318;48.644;9.456;2022-07-24T05:40:58;21.30;99.90
18384;DHT22;9318;48.644;9.456;2022-07-24T05:43:25;21.40;99.90
18384;DHT22;9318;48.644;9.456;2022-07-24T05:45:52;21.50;99.90
18384;DHT22;9318;48.644;9.456;2022-07-24T05:48:19;21.60;99.90
18384;DHT22;9318;48.644;9.456;2022-07-24T05:50:46;21.70;99.90
18384;DHT22;9318;48.644;9.456;2022-07-24T05:53:13;21.70;99.90
18384;DHT22;9318;48.644;9.456;2022-07-24T05:55:41;21.80;99.90
18384;DHT22;9318;48.644;9.456;2022-07-24T05:58:09;21.80;99.90
18384;DHT22;9318;48.644;9.456;2022-07-24T06:00:37;21.90;99.90
18384;DHT22;9318;48.644;9.456;2022-07-24T06:03:04;21.90;99.90
18384;DHT22;9318;48.644;9.456;2022-07-24T06:05:31;21.90;99.90
18384;DHT22;9318;48.644;9.456;2022-07-24T06:07:58;21.90;99.90
18384;DHT22;9318;48.644;9.456;2022-07-24T06:10:25;21.90;99.90
18384;DHT22;9318;48.644;9.456;2022-07-24T06:12:53;21.90;99.90
18384;DHT22;9318;48.644;9.456;2022-07-24T06:15:21;22.00;99.90
18384;DHT22;9318;48.644;9.456;2022-07-24T06:17:49;21.90;99.90
18384;DHT22;9318;48.644;9.456;2022-07-24T06:20:16;22.00;99.90
18384;DHT22;9318;48.644;9.456;2022-07-24T06:22:44;22.00;99.90
18384;DHT22;9318;48.644;9.456;2022-07-24T06:25:12;21.90;99.90
18384;DHT22;9318;48.644;9.456;2022-07-24T06:27:40;22.00;99.90
18384;DHT22;9318;48.644;9.456;2022-07-24T06:30:12;22.00;99.90
18384;DHT22;9318;48.644;9.456;2022-07-24T06:32:41;22.00;99.90
18384;DHT22;9318;48.644;9.456;2022-07-24T06:35:09;22.00;99.90
18384;DHT22;9318;48.644;9.456;2022-07-24T06:37:36;22.10;99.90
18384;DHT22;9318;48.644;9.456;2022-07-24T06:40:05;22.10;99.90
18384;DHT22;9318;48.644;9.456;2022-07-24T06:42:32;22.20;99.90
18384;DHT22;9318;48.644;9.456;2022-07-24T06:44:59;22.30;99.90
18384;DHT22;9318;48.644;9.456;2022-07-24T06:47:26;22.20;99.90
18384;DHT22;9318;48.644;9.456;2022-07-24T06:49:55;22.30;99.90
18384;DHT22;9318;48.644;9.456;2022-07-24T06:52:23;22.30;99.90
18384;DHT22;9318;48.644;9.456;2022-07-24T06:54:50;22.20;99.90
18384;DHT22;9318;48.644;9.456;2022-07-24T06:57:18;22.30;99.90
18384;DHT22;9318;48.644;9.456;2022-07-24T06:59:45;22.40;99.90
18384;DHT22;9318;48.644;9.456;2022-07-24T07:02:12;22.40;99.90
18384;DHT22;9318;48.644;9.456;2022-07-24T07:04:39;22.50;99.90
18384;DHT22;9318;48.644;9.456;2022-07-24T07:07:08;22.60;99.90
18384;DHT22;9318;48.644;9.456;2022-07-24T07:09:35;22.60;99.90
18384;DHT22;9318;48.644;9.456;2022-07-24T07:12:03;22.80;99.90
18384;DHT22;9318;48.644;9.456;2022-07-24T07:14:30;22.80;99.90
18384;DHT22;9318;48.644;9.456;2022-07-24T07:16:58;22.80;99.90
18384;DHT22;9318;48.644;9.456;2022-07-24T07:19:25;22.90;99.90
18384;DHT22;9318;48.644;9.456;2022-07-24T07:21:52;22.90;99.90
18384;DHT22;9318;48.644;9.456;2022-07-24T07:24:21;23.00;99.90
18384;DHT22;9318;48.644;9.456;2022-07-24T07:26:48;23.10;99.90
18384;DHT22;9318;48.644;9.456;2022-07-24T07:29:15;23.20;99.90
18384;DHT22;9318;48.644;9.456;2022-07-24T07:31:42;23.20;99.90
18384;DHT22;9318;48.644;9.456;2022-07-24T07:34:09;23.30;99.90
18384;DHT22;9318;48.644;9.456;2022-07-24T07:36:37;23.30;99.90
18384;DHT22;9318;48.644;9.456;2022-07-24T07:39:04;23.40;99.90
18384;DHT22;9318;48.644;9.456;2022-07-24T07:41:32;23.50;99.90
18384;DHT22;9318;48.644;9.456;2022-07-24T07:44:00;23.60;99.90
18384;DHT22;9318;48.644;9.456;2022-07-24T07:46:27;23.70;99.90
18384;DHT22;9318;48.644;9.456;2022-07-24T07:48:54;23.80;99.90
18384;DHT22;9318;48.644;9.456;2022-07-24T07:51:22;23.80;99.90
18384;DHT22;9318;48.644;9.456;2022-07-24T07:53:49;23.90;99.90
18384;DHT22;9318;48.644;9.456;2022-07-24T07:56:16;24.00;99.90
18384;DHT22;9318;48.644;9.456;2022-07-24T07:58:45;24.00;99.90
18384;DHT22;9318;48.644;9.456;2022-07-24T08:01:12;24.10;99.90
18384;DHT22;9318;48.644;9.456;2022-07-24T08:03:39;24.10;99.90
18384;DHT22;9318;48.644;9.456;2022-07-24T08:06:07;24.20;99.90
18384;DHT22;9318;48.644;9.456;2022-07-24T08:08:35;24.30;99.90
18384;DHT22;9318;48.644;9.456;2022-07-24T08:11:02;24.40;99.90
18384;DHT22;9318;48.644;9.456;2022-07-24T08:13:29;24.50;99.90
18384;DHT22;9318;48.644;9.456;2022-07-24T08:15:58;24.50;99.90
18384;DHT22;9318;48.644;9.456;2022-07-24T08:18:25;24.60;99.90
18384;DHT22;9318;48.644;9.456;2022-07-24T08:20:52;24.70;99.90
18384;DHT22;9318;48.644;9.456;2022-07-24T08:23:19;24.70;99.90
18384;DHT22;9318;48.644;9.456;2022-07-24T08:25:47;24.90;99.90
18384;DHT22;9318;48.644;9.456;2022-07-24T08:28:14;24.90;99.90
18384;DHT22;9318;48.644;9.456;2022-07-24T08:30:41;25.00;99.90
18384;DHT22;9318;48.644;9.456;2022-07-24T08:33:10;25.10;99.90
18384;DHT22;9318;48.644;9.456;2022-07-24T08:35:37;25.20;99.90
18384;DHT22;9318;48.644;9.456;2022-07-24T08:38:04;25.30;99.90
18384;DHT22;9318;48.644;9.456;2022-07-24T08:40:38;25.40;99.90
18384;DHT22;9318;48.644;9.456;2022-07-24T08:43:07;25.50;99.90
18384;DHT22;9318;48.644;9.456;2022-07-24T08:45:35;25.60;99.90
18384;DHT22;9318;48.644;9.456;2022-07-24T08:48:03;25.70;99.90
18384;DHT22;9318;48.644;9.456;2022-07-24T08:50:35;25.70;99.90
18384;DHT22;9318;48.644;9.456;2022-07-24T08:53:04;25.80;99.90
18384;DHT22;9318;48.644;9.456;2022-07-24T08:55:32;25.80;99.90
18384;DHT22;9318;48.644;9.456;2022-07-24T08:58:00;25.80;99.90
18384;DHT22;9318;48.644;9.456;2022-07-24T09:00:29;25.80;99.90
18384;DHT22;9318;48.644;9.456;2022-07-24T09:02:57;25.90;99.90
18384;DHT22;9318;48.644;9.456;2022-07-24T09:05:24;26.00;99.90
18384;DHT22;9318;48.644;9.456;2022-07-24T09:08:06;26.10;99.90
18384;DHT22;9318;48.644;9.456;2022-07-24T09:10:33;26.10;99.90
18384;DHT22;9318;48.644;9.456;2022-07-24T09:13:12;26.20;99.90
18384;DHT22;9318;48.644;9.456;2022-07-24T09:15:45;26.20;99.90
18384;DHT22;9318;48.644;9.456;2022-07-24T09:18:29;26.30;99.90
18384;DHT22;9318;48.644;9.456;2022-07-24T09:20:57;26.40;99.90
18384;DHT22;9318;48.644;9.456;2022-07-24T09:23:27;26.60;99.90
18384;DHT22;9318;48.644;9.456;2022-07-24T09:25:55;26.70;99.90
18384;DHT22;9318;48.644;9.456;2022-07-24T09:28:24;26.60;99.90
18384;DHT22;9318;48.644;9.456;2022-07-24T09:30:52;26.70;99.90
18384;DHT22;9318;48.644;9.456;2022-07-24T09:33:19;26.70;99.90
18384;DHT22;9318;48.644;9.456;2022-07-24T09:35:50;26.70;99.90
18384;DHT22;9318;48.644;9.456;2022-07-24T09:38:20;26.80;99.90
18384;DHT22;9318;48.644;9.456;2022-07-24T09:40:51;26.90;99.90
18384;DHT22;9318;48.644;9.456;2022-07-24T09:43:21;27.00;99.90
18384;DHT22;9318;48.644;9.456;2022-07-24T09:46:02;27.10;99.90
18384;DHT22;9318;48.644;9.456;2022-07-24T09:48:31;27.20;99.90
18384;DHT22;9318;48.644;9.456;2022-07-24T09:51:01;27.30;99.90
18384;DHT22;9318;48.644;9.456;2022-07-24T09:53:30;27.40;99.90
18384;DHT22;9318;48.644;9.456;2022-07-24T09:56:04;27.50;99.90
18384;DHT22;9318;48.644;9.456;2022-07-24T09:58:33;27.80;99.90
18384;DHT22;9318;48.644;9.456;2022-07-24T10:01:01;28.60;99.90
18384;DHT22;9318;48.644;9.456;2022-07-24T10:03:31;29.30;99.90
18384;DHT22;9318;48.644;9.456;2022-07-24T10:06:00;29.90;99.90
18384;DHT22;9318;48.644;9.456;2022-07-24T10:08:28;30.50;99.90
18384;DHT22;9318;48.644;9.456;2022-07-24T10:10:59;31.20;99.20
18384;DHT22;9318;48.644;9.456;2022-07-24T10:13:31;31.90;97.60
18384;DHT22;9318;48.644;9.456;2022-07-24T10:16:26;32.50;95.10
18384;DHT22;9318;48.644;9.456;2022-07-24T10:18:55;33.00;92.80
18384;DHT22;9318;48.644;9.456;2022-07-24T10:21:24;33.50;91.90
18384;DHT22;9318;48.644;9.456;2022-07-24T10:24:28;34.00;90.40
18384;DHT22;9318;48.644;9.456;2022-07-24T10:27:03;34.00;88.30
18384;DHT22;9318;48.644;9.456;2022-07-24T10:29:33;33.80;85.50
18384;DHT22;9318;48.644;9.456;2022-07-24T10:32:01;33.50;86.40
18384;DHT22;9318;48.644;9.456;2022-07-24T10:34:36;34.00;85.60
18384;DHT22;9318;48.644;9.456;2022-07-24T10:37:09;34.30;82.60
18384;DHT22;9318;48.644;9.456;2022-07-24T10:39:43;34.90;79.10
18384;DHT22;9318;48.644;9.456;2022-07-24T10:42:14;35.40;76.80
18384;DHT22;9318;48.644;9.456;2022-07-24T10:44:42;35.80;77.10
18384;DHT22;9318;48.644;9.456;2022-07-24T10:47:11;36.00;75.80
18384;DHT22;9318;48.644;9.456;2022-07-24T10:49:42;36.10;74.60
18384;DHT22;9318;48.644;9.456;2022-07-24T10:52:11;36.10;74.30
18384;DHT22;9318;48.644;9.456;2022-07-24T10:54:39;35.60;74.00
18384;DHT22;9318;48.644;9.456;2022-07-24T10:57:07;35.50;73.30
18384;DHT22;9318;48.644;9.456;2022-07-24T10:59:36;35.50;71.30
18384;DHT22;9318;48.644;9.456;2022-07-24T11:02:31;35.00;72.90
18384;DHT22;9318;48.644;9.456;2022-07-24T11:05:27;35.10;72.60
18384;DHT22;9318;48.644;9.456;2022-07-24T11:11:12;35.30;71.60
18384;DHT22;9318;48.644;9.456;2022-07-24T11:13:40;35.50;71.40
18384;DHT22;9318;48.644;9.456;2022-07-24T11:16:22;35.60;69.10
18384;DHT22;9318;48.644;9.456;2022-07-24T11:22:11;36.30;69.10
18384;DHT22;9318;48.644;9.456;2022-07-24T11:27:24;36.50;66.30
18384;DHT22;9318;48.644;9.456;2022-07-24T11:29:52;36.60;64.70
18384;DHT22;9318;48.644;9.456;2022-07-24T11:32:21;36.80;65.00
18384;DHT22;9318;48.644;9.456;2022-07-24T11:34:50;37.20;66.00
18384;DHT22;9318;48.644;9.456;2022-07-24T11:37:19;37.70;63.40
18384;DHT22;9318;48.644;9.456;2022-07-24T11:39:50;37.70;62.10
18384;DHT22;9318;48.644;9.456;2022-07-24T11:42:17;37.20;61.80
18384;DHT22;9318;48.644;9.456;2022-07-24T11:44:46;37.40;60.40
18384;DHT22;9318;48.644;9.456;2022-07-24T11:47:15;37.60;60.20
18384;DHT22;9318;48.644;9.456;2022-07-24T11:49:44;37.70;58.20
18384;DHT22;9318;48.644;9.456;2022-07-24T11:52:17;38.00;58.50
18384;DHT22;9318;48.644;9.456;2022-07-24T11:54:48;38.30;60.30
18384;DHT22;9318;48.644;9.456;2022-07-24T11:57:17;38.30;56.60
18384;DHT22;9318;48.644;9.456;2022-07-24T11:59:47;38.70;57.20
18384;DHT22;9318;48.644;9.456;2022-07-24T12:02:14;38.50;56.20
18384;DHT22;9318;48.644;9.456;2022-07-24T12:04:42;38.70;56.70
18384;DHT22;9318;48.644;9.456;2022-07-24T12:07:11;38.00;56.40
18384;DHT22;9318;48.644;9.456;2022-07-24T12:09:58;37.90;58.50
18384;DHT22;9318;48.644;9.456;2022-07-24T12:12:28;38.10;57.50
18384;DHT22;9318;48.644;9.456;2022-07-24T12:15:01;38.40;57.40
18384;DHT22;9318;48.644;9.456;2022-07-24T12:17:30;38.90;55.60
18384;DHT22;9318;48.644;9.456;2022-07-24T12:19:58;39.20;56.80
18384;DHT22;9318;48.644;9.456;2022-07-24T12:22:27;39.30;55.40
18384;DHT22;9318;48.644;9.456;2022-07-24T12:24:56;39.70;55.30
18384;DHT22;9318;48.644;9.456;2022-07-24T12:27:39;39.60;54.10
18384;DHT22;9318;48.644;9.456;2022-07-24T12:30:22;39.80;55.00
18384;DHT22;9318;48.644;9.456;2022-07-24T12:32:59;40.00;52.70
18384;DHT22;9318;48.644;9.456;2022-07-24T12:35:27;39.90;55.60
18384;DHT22;9318;48.644;9.456;2022-07-24T12:37:56;40.30;53.40
18384;DHT22;9318;48.644;9.456;2022-07-24T12:40:25;40.30;52.40
18384;DHT22;9318;48.644;9.456;2022-07-24T12:42:59;40.10;52.90
18384;DHT22;9318;48.644;9.456;2022-07-24T12:45:27;40.10;54.30
18384;DHT22;9318;48.644;9.456;2022-07-24T12:48:09;40.10;53.20
18384;DHT22;9318;48.644;9.456;2022-07-24T12:50:37;40.30;52.90
18384;DHT22;9318;48.644;9.456;2022-07-24T12:53:05;40.50;52.60
18384;DHT22;9318;48.644;9.456;2022-07-24T12:55:33;40.70;52.50
18384;DHT22;9318;48.644;9.456;2022-07-24T12:58:04;40.10;51.20
18384;DHT22;9318;48.644;9.456;2022-07-24T13:00:33;40.30;52.10
18384;DHT22;9318;48.644;9.456;2022-07-24T13:03:00;40.60;52.50
18384;DHT22;9318;48.644;9.456;2022-07-24T13:05:45;40.80;52.40
18384;DHT22;9318;48.644;9.456;2022-07-24T13:08:17;40.90;50.90
18384;DHT22;9318;48.644;9.456;2022-07-24T13:10:44;40.70;52.10
18384;DHT22;9318;48.644;9.456;2022-07-24T13:13:13;40.60;51.90
18384;DHT22;9318;48.644;9.456;2022-07-24T13:15:40;40.60;52.20
18384;DHT22;9318;48.644;9.456;2022-07-24T13:18:07;40.70;51.60
18384;DHT22;9318;48.644;9.456;2022-07-24T13:20:34;40.90;51.00
18384;DHT22;9318;48.644;9.456;2022-07-24T13:23:01;41.10;49.70
18384;DHT22;9318;48.644;9.456;2022-07-24T13:25:29;41.10;50.30
18384;DHT22;9318;48.644;9.456;2022-07-24T13:27:56;41.00;49.80
18384;DHT22;9318;48.644;9.456;2022-07-24T13:30:25;41.20;51.10
18384;DHT22;9318;48.644;9.456;2022-07-24T13:32:52;40.90;50.10
18384;DHT22;9318;48.644;9.456;2022-07-24T13:35:19;40.60;51.40
18384;DHT22;9318;48.644;9.456;2022-07-24T13:37:46;40.70;49.80
18384;DHT22;9318;48.644;9.456;2022-07-24T13:40:13;40.60;49.50
18384;DHT22;9318;48.644;9.456;2022-07-24T13:42:41;40.70;51.20
18384;DHT22;9318;48.644;9.456;2022-07-24T13:45:09;40.90;50.20
18384;DHT22;9318;48.644;9.456;2022-07-24T13:47:38;41.20;50.30
18384;DHT22;9318;48.644;9.456;2022-07-24T13:50:06;41.30;50.40
18384;DHT22;9318;48.644;9.456;2022-07-24T13:52:33;41.30;49.10
18384;DHT22;9318;48.644;9.456;2022-07-24T13:55:01;41.40;49.50
18384;DHT22;9318;48.644;9.456;2022-07-24T13:57:29;41.30;49.70
18384;DHT22;9318;48.644;9.456;2022-07-24T13:59:56;41.30;49.60
18384;DHT22;9318;48.644;9.456;2022-07-24T14:02:23;41.50;49.60
18384;DHT22;9318;48.644;9.456;2022-07-24T14:04:52;41.50;49.90
18384;DHT22;9318;48.644;9.456;2022-07-24T14:07:19;41.40;49.60
18384;DHT22;9318;48.644;9.456;2022-07-24T14:09:47;41.40;49.80
18384;DHT22;9318;48.644;9.456;2022-07-24T14:12:14;41.20;48.20
18384;DHT22;9318;48.644;9.456;2022-07-24T14:14:41;41.20;49.10
18384;DHT22;9318;48.644;9.456;2022-07-24T14:17:08;41.40;49.70
18384;DHT22;9318;48.644;9.456;2022-07-24T14:19:36;41.20;48.20
18384;DHT22;9318;48.644;9.456;2022-07-24T14:22:04;41.10;48.50
18384;DHT22;9318;48.644;9.456;2022-07-24T14:24:32;41.70;48.80
18384;DHT22;9318;48.644;9.456;2022-07-24T14:26:59;42.40;48.10
18384;DHT22;9318;48.644;9.456;2022-07-24T14:29:26;43.00;47.70
18384;DHT22;9318;48.644;9.456;2022-07-24T14:31:53;43.30;46.10
18384;DHT22;9318;48.644;9.456;2022-07-24T14:34:21;43.70;45.40
18384;DHT22;9318;48.644;9.456;2022-07-24T14:36:48;44.00;46.10
18384;DHT22;9318;48.644;9.456;2022-07-24T14:39:16;44.20;45.30
18384;DHT22;9318;48.644;9.456;2022-07-24T14:41:45;44.50;45.40
18384;DHT22;9318;48.644;9.456;2022-07-24T14:44:12;44.80;44.50
18384;DHT22;9318;48.644;9.456;2022-07-24T14:46:40;45.20;43.40
18384;DHT22;9318;48.644;9.456;2022-07-24T14:49:07;45.40;44.00
18384;DHT22;9318;48.644;9.456;2022-07-24T14:51:35;45.70;42.70
18384;DHT22;9318;48.644;9.456;2022-07-24T14:54:03;45.80;43.00
18384;DHT22;9318;48.644;9.456;2022-07-24T14:56:32;46.00;43.00
18384;DHT22;9318;48.644;9.456;2022-07-24T14:59:00;46.00;42.60
18384;DHT22;9318;48.644;9.456;2022-07-24T15:01:27;45.70;42.90
18384;DHT22;9318;48.644;9.456;2022-07-24T15:03:54;45.50;42.80
18384;DHT22;9318;48.644;9.456;2022-07-24T15:06:22;44.70;43.50
18384;DHT22;9318;48.644;9.456;2022-07-24T15:08:49;44.30;44.60
18384;DHT22;9318;48.644;9.456;2022-07-24T15:11:16;44.20;44.30
18384;DHT22;9318;48.644;9.456;2022-07-24T15:13:48;44.40;43.50
18384;DHT22;9318;48.644;9.456;2022-07-24T15:16:15;44.90;43.90
18384;DHT22;9318;48.644;9.456;2022-07-24T15:18:43;45.00;43.40
18384;DHT22;9318;48.644;9.456;2022-07-24T15:21:10;45.20;43.50
18384;DHT22;9318;48.644;9.456;2022-07-24T15:23:37;45.30;43.00
18384;DHT22;9318;48.644;9.456;2022-07-24T15:26:05;45.50;42.30
18384;DHT22;9318;48.644;9.456;2022-07-24T15:28:32;45.30;42.40
18384;DHT22;9318;48.644;9.456;2022-07-24T15:31:01;45.50;42.50
18384;DHT22;9318;48.644;9.456;2022-07-24T15:33:28;45.80;41.30
18384;DHT22;9318;48.644;9.456;2022-07-24T15:35:56;46.40;41.00
18384;DHT22;9318;48.644;9.456;2022-07-24T15:38:23;46.80;41.50
18384;DHT22;9318;48.644;9.456;2022-07-24T15:40:50;46.70;40.80
18384;DHT22;9318;48.644;9.456;2022-07-24T15:43:17;47.00;40.80
18384;DHT22;9318;48.644;9.456;2022-07-24T15:45:45;47.00;41.20
18384;DHT22;9318;48.644;9.456;2022-07-24T15:48:14;46.40;41.40
18384;DHT22;9318;48.644;9.456;2022-07-24T15:50:41;46.30;41.20
18384;DHT22;9318;48.644;9.456;2022-07-24T15:53:08;46.30;41.60
18384;DHT22;9318;48.644;9.456;2022-07-24T15:55:36;46.30;41.30
18384;DHT22;9318;48.644;9.456;2022-07-24T15:58:03;46.40;41.20
18384;DHT22;9318;48.644;9.456;2022-07-24T16:00:31;46.60;41.00
18384;DHT22;9318;48.644;9.456;2022-07-24T16:02:58;46.30;40.40